Yamba, New South Wales

1:05 PM AEDT on February 13, 2016 (GMT +1100)
Lismore | | Change Station
CLOSE
Current Station
Airport
Location: Lismore Airport,
Elevation: 33 ft
Nearby Weather Stations

Elev 33 ft 28.83 °S, 153.26 °E | Updated 55 minutes ago

Overcast
Overcast
73 °F
Feels Like 73 °F
N
12
Wind Variable Wind from South

Today
High -- | Low -- °F
--% Chance of Precip.
Yesterday
High -- | Low -- °F
Precip. -- in
Pressure 29.89 in
Visibility 4.3 miles
Clouds Scattered Clouds 2700 ft
Overcast 3400 ft
Overcast 4200 ft
Dew Point 70 °F
Humidity 88%
Rainfall 0.00 in
Snow Depth Not available.
6:25 AM 7:35 PM
Waxing Crescent, 25% visible
SPECI YLIS 130110Z AUTO 17010KT 7000 // SCT027 OVC034 OVC042 23/21 Q1012
Pressure 29.89 in
Visibility 4.3 miles
Clouds Scattered Clouds 2700 ft
Overcast 3400 ft
Overcast 4200 ft
Dew Point 70 °F
Humidity 88%
Rainfall 0.00 in
Snow Depth Not available.
6:25 AM 7:35 PM
Waxing Crescent, 25% visible
SPECI YLIS 130110Z AUTO 17010KT 7000 // SCT027 OVC034 OVC042 23/21 Q1012

10-Day Weather Forecast

Almanac

Astronomy

Feb. 13, 2016 Rise Set
Actual Time
Civil Twilight
Nautical Twilight
Astronomical Twilight
Moon
Length of Visible Light
Length of Day
Tomorrow will be .
, % of the Moon is Illuminated

Today's Extremes

Country Highs Country Lows

Community

WunderPhotos

Upload Photos

1,892,464 photos uploaded!

WunderBlog® & News

Nearby

Air Quality

  Air Quality AQ Index Pollutant
Not available.

Snow Depth

Station Depth Elevation

Earthquake Activity

City Distance Mag. Time & Date
Minimum magnitude displayed is 2.5.

Coastal Water Temperatures

Place Temperature

Stations

Nearby Weather Stations

Station Location Temp. Windchill Dew Point Humidity Wind Precip. Elev Updated Type